Time;durP1;ratioP1;P1;durP2;ratioP2;P2;SDS_P1;SDS_P2;PMS_P1;PMS_P2;Temp;Humidity;BMP_temperature;BMP_pressure;BME280_temperature;BME280_humidity;BME280_pressure;Samples;Min_cycle;Max_cycle;Signal;HPM_P1;HPM_P2
2021/01/30 00:01:14;;;;;;;5.00;1.20;;;18.70;36.60;;;;;;5112431;27;20027;-62
2021/01/30 00:03:41;;;;;;;2.42;0.80;;;18.50;36.80;;;;;;5128107;27;20016;-61
2021/01/30 00:06:07;;;;;;;2.67;1.10;;;18.40;37.20;;;;;;5134129;27;20102;-62
2021/01/30 00:08:35;;;;;;;5.57;1.08;;;18.40;37.30;;;;;;5113349;27;20396;-61
2021/01/30 00:11:01;;;;;;;7.47;1.25;;;18.40;37.70;;;;;;5125802;27;20028;-60
2021/01/30 00:13:28;;;;;;;7.13;3.50;;;18.40;38.00;;;;;;5130003;27;20023;-61
2021/01/30 00:15:54;;;;;;;6.35;0.88;;;18.40;38.70;;;;;;5123509;27;20472;-62
2021/01/30 00:18:21;;;;;;;6.40;0.80;;;18.40;38.40;;;;;;5127132;27;20027;-60
2021/01/30 00:20:47;;;;;;;6.53;1.05;;;18.20;39.70;;;;;;5128913;27;20034;-60
2021/01/30 00:23:14;;;;;;;8.52;1.00;;;18.10;41.30;;;;;;5132606;27;20023;-62
2021/01/30 00:25:40;;;;;;;4.97;0.60;;;18.00;42.50;;;;;;5131377;27;20529;-58
2021/01/30 00:28:08;;;;;;;2.13;0.50;;;18.00;43.00;;;;;;5131850;27;20436;-60
2021/01/30 00:30:35;;;;;;;4.47;0.73;;;17.70;44.00;;;;;;5113190;27;20028;-61
2021/01/30 00:33:03;;;;;;;1.15;0.57;;;17.50;45.00;;;;;;5112544;27;20031;-61
2021/01/30 00:35:31;;;;;;;2.83;0.60;;;17.40;45.60;;;;;;5091952;28;20035;-61
2021/01/30 00:37:58;;;;;;;1.92;0.70;;;17.20;45.60;;;;;;5113563;27;20019;-61
2021/01/30 00:40:24;;;;;;;15.48;1.30;;;17.00;45.90;;;;;;5126395;27;20556;-57
2021/01/30 00:42:52;;;;;;;4.13;0.77;;;16.70;46.70;;;;;;5110627;27;20019;-56
2021/01/30 00:45:21;;;;;;;5.45;1.25;;;16.70;47.40;;;;;;5110759;27;20424;-58
2021/01/30 00:47:48;;;;;;;4.35;0.70;;;16.50;48.20;;;;;;5106855;27;20024;-62
2021/01/30 00:50:17;;;;;;;4.13;0.75;;;16.50;48.70;;;;;;5106005;27;20528;-62
2021/01/30 00:52:44;;;;;;;4.30;1.10;;;16.40;49.00;;;;;;5123851;27;20027;-61
2021/01/30 00:55:12;;;;;;;1.45;0.93;;;16.40;49.40;;;;;;5130320;27;20107;-61
2021/01/30 00:57:39;;;;;;;5.50;0.98;;;16.30;49.80;;;;;;5104311;27;20047;-61
2021/01/30 01:00:09;;;;;;;3.28;1.30;;;16.30;50.10;;;;;;5103443;28;20024;-59
2021/01/30 01:02:37;;;;;;;3.60;1.10;;;16.30;50.40;;;;;;5116456;27;20122;-61
2021/01/30 01:05:04;;;;;;;4.32;1.80;;;16.20;50.00;;;;;;5122972;27;20031;-61
2021/01/30 01:07:31;;;;;;;11.15;2.55;;;16.10;50.10;;;;;;5110981;27;20019;-61
2021/01/30 01:09:57;;;;;;;;;;;16.20;49.80;;;;;;5105098;27;20028;-61
2021/01/30 01:12:24;;;;;;;6.43;1.50;;;16.20;50.00;;;;;;5128633;27;19911;-62
2021/01/30 01:14:50;;;;;;;;;;;16.10;50.30;;;;;;5110305;27;20024;-62
2021/01/30 01:17:16;;;;;;;3.22;0.90;;;16.10;51.50;;;;;;5129077;27;19912;-62
2021/01/30 01:19:42;;;;;;;;;;;16.00;52.30;;;;;;5111091;28;20379;-62
2021/01/30 01:22:09;;;;;;;3.58;1.00;;;15.90;53.00;;;;;;5115685;27;19918;-61
2021/01/30 01:24:35;;;;;;;;;;;15.90;53.40;;;;;;5126960;27;20015;-62
2021/01/30 01:27:01;;;;;;;5.07;0.82;;;15.80;53.60;;;;;;5125068;27;20394;-62
2021/01/30 01:29:28;;;;;;;;;;;15.80;53.50;;;;;;5125563;27;20072;-61
2021/01/30 01:31:57;;;;;;;4.45;0.90;;;15.70;53.80;;;;;;5101137;27;19986;-61
2021/01/30 01:34:26;;;;;;;3.58;0.68;;;15.70;54.10;;;;;;5123012;27;20026;-63
2021/01/30 01:37:03;;;;;;;2.10;0.80;;;15.60;54.30;;;;;;5113677;27;20027;-62
2021/01/30 01:39:31;;;;;;;5.90;0.82;;;15.50;54.70;;;;;;5124362;27;20066;-62
2021/01/30 01:42:16;;;;;;;5.20;1.30;;;15.50;55.10;;;;;;5126649;27;20039;-61
2021/01/30 01:44:46;;;;;;;2.25;1.15;;;15.50;55.50;;;;;;5121807;27;20092;-61
2021/01/30 01:47:37;;;;;;;2.92;0.75;;;15.40;55.80;;;;;;5110674;28;20023;-62
2021/01/30 01:50:28;;;;;;;1.63;0.70;;;15.30;56.00;;;;;;5111615;28;20023;-62
2021/01/30 01:53:01;;;;;;;2.97;0.93;;;15.20;56.20;;;;;;5106702;28;20069;-62
2021/01/30 01:55:28;;;;;;;4.45;0.88;;;15.20;56.30;;;;;;5118009;28;20485;-61
2021/01/30 01:57:59;;;;;;;3.90;1.05;;;15.10;56.50;;;;;;5119588;28;20053;-62
2021/01/30 02:00:26;;;;;;;5.32;1.85;;;15.10;56.60;;;;;;5110641;28;20059;-62
2021/01/30 02:02:55;;;;;;;9.45;2.20;;;15.00;56.60;;;;;;5117080;28;20165;-62
2021/01/30 02:05:40;;;;;;;9.00;2.00;;;15.00;57.00;;;;;;5123369;28;20384;-62
2021/01/30 02:08:11;;;;;;;5.57;1.73;;;14.90;57.30;;;;;;5126793;28;20106;-62
2021/01/30 02:10:43;;;;;;;4.38;1.65;;;14.90;57.50;;;;;;5124509;28;20024;-62
2021/01/30 02:13:29;;;;;;;3.25;1.67;;;14.90;57.70;;;;;;5118397;28;20024;-62
2021/01/30 02:16:05;;;;;;;3.55;1.77;;;14.80;57.90;;;;;;5132137;28;20031;-62
2021/01/30 02:18:35;;;;;;;6.40;2.60;;;14.80;58.10;;;;;;5115282;28;20023;-62
2021/01/30 02:21:36;;;;;;;13.13;3.72;;;14.90;58.30;;;;;;5128228;28;20465;-60
2021/01/30 02:24:09;;;;;;;7.45;2.08;;;14.80;58.00;;;;;;5103359;28;20070;-62
2021/01/30 02:26:54;;;;;;;8.80;2.38;;;14.90;58.40;;;;;;5123478;28;20030;-61
2021/01/30 02:29:42;;;;;;;6.85;2.20;;;14.90;58.30;;;;;;5120664;27;20035;-61
2021/01/30 02:32:20;;;;;;;3.38;1.00;;;14.90;58.30;;;;;;5118472;28;20028;-62
2021/01/30 02:35:23;;;;;;;3.92;1.40;;;14.90;58.00;;;;;;5123130;27;20019;-61
2021/01/30 02:37:52;;;;;;;3.28;1.30;;;14.90;58.10;;;;;;5072574;27;20031;-62
2021/01/30 02:40:25;;;;;;;8.95;1.20;;;14.90;57.90;;;;;;5128514;27;20081;-62
2021/01/30 02:43:17;;;;;;;4.03;1.25;;;14.90;57.90;;;;;;5132590;27;20030;-60
2021/01/30 02:45:52;;;;;;;4.47;1.60;;;15.00;57.60;;;;;;5131431;27;20027;-62
2021/01/30 02:48:25;;;;;;;5.03;1.52;;;14.90;57.60;;;;;;5126705;27;20046;-61
2021/01/30 02:50:58;;;;;;;6.90;2.00;;;14.90;57.50;;;;;;5132145;27;20031;-60
2021/01/30 02:53:35;;;;;;;3.53;1.55;;;14.80;57.80;;;;;;5132426;27;20023;-61
2021/01/30 02:56:05;;;;;;;4.07;1.20;;;14.80;58.20;;;;;;5131342;27;20027;-60
2021/01/30 02:58:42;;;;;;;6.40;2.88;;;14.70;58.00;;;;;;5127304;27;20028;-60
2021/01/30 03:01:09;;;;;;;22.05;10.20;;;14.80;58.10;;;;;;5108187;27;20530;-62
2021/01/30 03:03:36;;;;;;;8.38;3.67;;;14.70;57.90;;;;;;5127117;27;20110;-61
2021/01/30 03:06:28;;;;;;;9.45;3.00;;;14.70;58.00;;;;;;5114006;27;20024;-60
2021/01/30 03:09:17;;;;;;;6.90;1.70;;;14.60;57.90;;;;;;5112213;27;20043;-61
2021/01/30 03:11:54;;;;;;;2.95;1.58;;;14.60;58.10;;;;;;5115199;27;20509;-62
2021/01/30 03:14:23;;;;;;;5.38;2.50;;;14.60;58.30;;;;;;5131587;27;20018;-62
2021/01/30 03:16:52;;;;;;;6.32;2.85;;;14.50;58.20;;;;;;5123998;27;20019;-61
2021/01/30 03:19:26;;;;;;;3.42;2.00;;;14.50;58.40;;;;;;5132337;27;20487;-62
2021/01/30 03:22:14;;;;;;;5.43;1.10;;;14.40;58.30;;;;;;5128523;27;20034;-59
2021/01/30 03:24:46;;;;;;;3.30;1.48;;;14.30;58.40;;;;;;5111968;27;20333;-61
2021/01/30 03:27:23;;;;;;;10.88;4.65;;;14.30;58.50;;;;;;5127018;27;20496;-60
2021/01/30 03:29:51;;;;;;;4.82;1.70;;;14.30;58.70;;;;;;5126438;27;20390;-63
2021/01/30 03:32:21;;;;;;;5.35;1.52;;;14.20;58.90;;;;;;5123284;27;20043;-61
2021/01/30 03:34:51;;;;;;;5.70;1.92;;;14.20;59.30;;;;;;5126730;27;20019;-63
2021/01/30 03:37:19;;;;;;;4.78;1.83;;;14.20;59.50;;;;;;5108447;27;20027;-62
2021/01/30 03:39:46;;;;;;;7.45;3.20;;;14.20;59.70;;;;;;5127217;27;20406;-60
2021/01/30 03:42:13;;;;;;;6.25;2.35;;;14.10;59.90;;;;;;5125955;27;20032;-64
2021/01/30 03:44:40;;;;;;;4.47;2.00;;;14.10;60.10;;;;;;5129704;27;20479;-63
2021/01/30 03:47:07;;;;;;;4.20;1.27;;;14.00;60.70;;;;;;5120378;27;20027;-62
2021/01/30 03:49:34;;;;;;;2.42;1.00;;;13.90;61.10;;;;;;5129047;27;20023;-60
2021/01/30 03:52:00;;;;;;;2.83;1.60;;;13.90;61.90;;;;;;5134751;27;20513;-59
2021/01/30 03:54:26;;;;;;;;;;;13.80;62.50;;;;;;5124076;27;20456;-60
2021/01/30 03:56:53;;;;;;;5.57;1.50;;;13.80;63.00;;;;;;5131649;27;19914;-59
2021/01/30 03:59:21;;;;;;;3.20;1.45;;;13.80;63.20;;;;;;5124346;27;20015;-60
2021/01/30 04:01:48;;;;;;;6.65;1.70;;;13.80;63.90;;;;;;5110080;28;20063;-60
2021/01/30 04:04:15;;;;;;;8.05;2.10;;;13.70;64.00;;;;;;5126317;27;20102;-61
2021/01/30 04:06:50;;;;;;;4.53;2.20;;;13.70;64.10;;;;;;5109018;28;20081;-60
2021/01/30 04:09:19;;;;;;;3.78;2.17;;;13.70;64.50;;;;;;5124578;27;20015;-57
2021/01/30 04:11:46;;;;;;;8.90;2.83;;;13.70;64.50;;;;;;5131598;27;20064;-61
2021/01/30 04:14:13;;;;;;;3.88;2.17;;;13.70;64.90;;;;;;5125308;27;20020;-61
2021/01/30 04:16:40;;;;;;;7.00;2.10;;;13.60;65.00;;;;;;5129345;27;20023;-61
2021/01/30 04:19:06;;;;;;;;;;;13.60;65.60;;;;;;5127324;27;20032;-61
2021/01/30 04:21:32;;;;;;;4.32;1.50;;;13.60;65.70;;;;;;5117220;27;20060;-62
2021/01/30 04:23:58;;;;;;;;;;;13.60;65.80;;;;;;5121294;27;20423;-62
2021/01/30 04:26:25;;;;;;;6.10;1.55;;;13.60;66.10;;;;;;5122386;27;19978;-61
2021/01/30 04:28:52;;;;;;;;;;;13.60;66.50;;;;;;5113234;27;20399;-61
2021/01/30 04:31:19;;;;;;;5.60;1.63;;;13.60;66.00;;;;;;5130138;27;19904;-60
2021/01/30 04:33:47;;;;;;;7.93;2.33;;;13.60;66.10;;;;;;5124911;27;20035;-60
2021/01/30 04:36:15;;;;;;;7.22;2.08;;;13.60;66.20;;;;;;5127423;27;20027;-62
2021/01/30 04:38:42;;;;;;;9.88;2.80;;;13.50;66.50;;;;;;5115876;27;20026;-61
2021/01/30 04:41:22;;;;;;;17.02;2.90;;;13.40;66.70;;;;;;5108079;27;20042;-62
2021/01/30 04:44:11;;;;;;;23.58;10.73;;;13.40;67.20;;;;;;5113695;27;20130;-62
2021/01/30 04:46:46;;;;;;;12.60;5.25;;;13.30;68.00;;;;;;5123005;27;20028;-60
2021/01/30 04:49:25;;;;;;;12.85;4.50;;;13.30;68.00;;;;;;5128143;27;20019;-61
2021/01/30 04:52:13;;;;;;;12.30;3.75;;;13.30;68.50;;;;;;5132362;27;20110;-61
2021/01/30 04:55:15;;;;;;;10.35;3.95;;;13.30;68.30;;;;;;5103371;27;20024;-61
2021/01/30 04:57:52;;;;;;;8.45;3.30;;;13.10;69.30;;;;;;5121680;27;20575;-60
2021/01/30 05:00:21;;;;;;;;;;;13.10;69.40;;;;;;5130650;27;20103;-61
2021/01/30 05:03:18;;;;;;;12.93;4.55;;;13.10;69.70;;;;;;5128397;27;19908;-62
2021/01/30 05:05:50;;;;;;;11.93;4.47;;;13.10;70.50;;;;;;5120450;27;20028;-60
2021/01/30 05:08:42;;;;;;;10.88;3.50;;;13.00;71.20;;;;;;5124440;27;20474;-62
2021/01/30 05:11:21;;;;;;;6.65;3.22;;;13.00;71.70;;;;;;5092320;27;20070;-62
2021/01/30 05:14:16;;;;;;;13.82;3.85;;;13.00;72.30;;;;;;5120831;27;20130;-62
2021/01/30 05:17:08;;;;;;;16.58;3.58;;;13.00;72.80;;;;;;5100910;27;20102;-61
2021/01/30 05:19:43;;;;;;;9.65;2.30;;;12.90;73.10;;;;;;5117051;27;20053;-62
2021/01/30 05:22:14;;;;;;;18.38;2.30;;;12.90;73.60;;;;;;5127795;27;20031;-61
2021/01/30 05:24:44;;;;;;;12.35;1.92;;;12.80;73.80;;;;;;5130973;27;20023;-61
2021/01/30 05:27:55;;;;;;;7.60;2.30;;;12.80;73.40;;;;;;5114809;27;20040;-63
2021/01/30 05:30:54;;;;;;;11.68;3.33;;;12.80;74.60;;;;;;5093678;27;20080;-61
2021/01/30 05:33:33;;;;;;;15.95;6.05;;;12.60;74.60;;;;;;5128019;27;20023;-62
2021/01/30 05:36:22;;;;;;;12.70;5.20;;;12.60;74.70;;;;;;5124144;27;20027;-61
2021/01/30 05:39:17;;;;;;;14.32;3.50;;;12.50;76.10;;;;;;5123735;27;20027;-60
2021/01/30 05:41:58;;;;;;;8.95;2.97;;;12.40;75.80;;;;;;5126943;27;20039;-61
2021/01/30 05:44:56;;;;;;;13.88;4.72;;;12.40;76.20;;;;;;5116556;27;20420;-60
2021/01/30 05:47:29;;;;;;;17.60;7.22;;;12.40;75.70;;;;;;5123954;27;20060;-61
2021/01/30 05:50:01;;;;;;;18.35;5.82;;;12.40;75.90;;;;;;5132429;27;20023;-61
2021/01/30 05:52:31;;;;;;;12.63;3.80;;;12.50;76.00;;;;;;5131715;27;20297;-61
2021/01/30 05:54:58;;;;;;;12.30;4.78;;;12.60;75.70;;;;;;5113777;28;20023;-61
2021/01/30 05:57:25;;;;;;;14.13;5.43;;;12.60;75.50;;;;;;5122233;28;20028;-60
2021/01/30 05:59:57;;;;;;;9.55;4.07;;;12.60;74.90;;;;;;5124529;28;20068;-62
2021/01/30 06:02:27;;;;;;;9.88;4.30;;;12.70;75.20;;;;;;5104086;28;20062;-62
2021/01/30 06:04:54;;;;;;;15.02;4.90;;;12.70;75.40;;;;;;5117415;28;20026;-62
2021/01/30 06:07:29;;;;;;;17.65;6.32;;;12.70;75.40;;;;;;5102748;28;20035;-62
2021/01/30 06:09:57;;;;;;;14.35;6.05;;;12.70;76.20;;;;;;5130161;27;20036;-61
2021/01/30 06:12:36;;;;;;;13.43;6.20;;;12.70;76.40;;;;;;5128994;27;20038;-61
2021/01/30 06:15:16;;;;;;;17.10;4.88;;;12.70;76.70;;;;;;5119042;27;20482;-61
2021/01/30 06:17:43;;;;;;;15.23;5.65;;;12.60;77.10;;;;;;5128534;27;20118;-62
2021/01/30 06:20:29;;;;;;;17.23;8.27;;;12.50;77.50;;;;;;5122800;27;20039;-61
2021/01/30 06:23:05;;;;;;;19.70;7.60;;;12.40;77.50;;;;;;5114847;27;20478;-61
2021/01/30 06:25:43;;;;;;;15.53;6.20;;;12.40;77.50;;;;;;5132412;27;20022;-61
2021/01/30 06:28:23;;;;;;;;;;;12.40;77.60;;;;;;5127779;27;20178;-61
2021/01/30 06:30:51;;;;;;;17.05;4.88;;;12.40;77.50;;;;;;5109248;28;19972;-61
2021/01/30 06:33:36;;;;;;;11.00;4.05;;;12.40;77.60;;;;;;5117890;27;20018;-61
2021/01/30 06:36:25;;;;;;;12.30;4.10;;;12.40;77.80;;;;;;5128545;27;20074;-60
2021/01/30 06:39:00;;;;;;;9.90;4.40;;;12.40;77.80;;;;;;5122480;27;20058;-61
2021/01/30 06:41:30;;;;;;;7.88;3.80;;;12.50;77.90;;;;;;5127182;27;20060;-61
2021/01/30 06:44:29;;;;;;;12.32;4.85;;;12.50;78.50;;;;;;5125743;27;20034;-62
2021/01/30 06:47:13;;;;;;;9.18;3.70;;;12.40;79.30;;;;;;5128260;27;20027;-58
2021/01/30 06:49:58;;;;;;;11.40;3.92;;;12.40;78.90;;;;;;5124936;27;20098;-60
2021/01/30 06:52:31;;;;;;;13.77;4.03;;;12.40;78.40;;;;;;5127537;27;20172;-60
2021/01/30 06:55:06;;;;;;;10.10;4.10;;;12.40;78.90;;;;;;5125101;27;20512;-60
2021/01/30 06:57:52;;;;;;;17.00;4.18;;;12.30;80.40;;;;;;5119104;27;20062;-61
2021/01/30 07:00:20;;;;;;;20.65;4.38;;;12.30;81.10;;;;;;5126247;27;20129;-61
2021/01/30 07:03:03;;;;;;;10.15;4.15;;;12.20;81.40;;;;;;5124304;27;22695;-62
2021/01/30 07:05:52;;;;;;;14.23;4.90;;;12.20;81.70;;;;;;5125684;27;20039;-62
2021/01/30 07:08:37;;;;;;;12.50;5.32;;;12.10;82.70;;;;;;5122554;27;20029;-62
2021/01/30 07:11:16;;;;;;;8.80;4.50;;;12.00;82.80;;;;;;5125475;27;20044;-62
2021/01/30 07:14:04;;;;;;;9.35;4.75;;;11.80;83.10;;;;;;5120677;27;20102;-61
2021/01/30 07:16:46;;;;;;;12.07;5.47;;;11.90;83.90;;;;;;5133595;27;20398;-61
2021/01/30 07:19:43;;;;;;;15.00;4.32;;;11.90;84.80;;;;;;5127108;27;20032;-61
2021/01/30 07:22:25;;;;;;;9.98;4.50;;;11.90;85.30;;;;;;5128164;27;20150;-62
2021/01/30 07:25:07;;;;;;;17.08;4.10;;;11.90;84.80;;;;;;5132657;27;20075;-61
2021/01/30 07:27:42;;;;;;;16.60;5.60;;;11.80;85.70;;;;;;5114444;27;20059;-61
2021/01/30 07:30:16;;;;;;;21.67;5.80;;;11.80;85.60;;;;;;5124578;27;20021;-62
2021/01/30 07:32:43;;;;;;;18.45;6.45;;;11.80;86.30;;;;;;5120687;27;20101;-62
2021/01/30 07:35:18;;;;;;;;;;;11.70;86.80;;;;;;5126008;27;20031;-62
2021/01/30 07:38:10;;;;;;;19.17;7.40;;;11.70;86.70;;;;;;5129155;27;19930;-60
2021/01/30 07:40:59;;;;;;;23.20;8.30;;;11.70;87.40;;;;;;5118101;27;20075;-61
2021/01/30 07:43:34;;;;;;;19.95;8.77;;;11.60;88.50;;;;;;5132827;27;20089;-61
2021/01/30 07:46:22;;;;;;;27.45;9.02;;;11.50;88.60;;;;;;5107682;27;20373;-61
2021/01/30 07:49:00;;;;;;;18.70;9.07;;;11.50;90.00;;;;;;5147556;27;20042;-62
2021/01/30 07:51:32;;;;;;;20.15;7.55;;;11.50;90.30;;;;;;5130966;27;20093;-61
2021/01/30 07:53:59;;;;;;;19.85;8.60;;;11.50;90.60;;;;;;5131341;27;20588;-62
2021/01/30 07:56:38;;;;;;;21.88;8.77;;;11.50;90.80;;;;;;5133515;27;20031;-62
2021/01/30 07:59:51;;;;;;;23.35;8.80;;;11.60;91.00;;;;;;5131654;27;20436;-61
2021/01/30 08:02:33;;;;;;;18.75;6.30;;;11.60;91.20;;;;;;5132847;27;20454;-62
2021/01/30 08:05:16;;;;;;;17.15;5.47;;;11.50;91.30;;;;;;5105672;27;20109;-62
2021/01/30 08:08:00;;;;;;;13.80;6.00;;;11.50;90.80;;;;;;5127171;27;20058;-62
2021/01/30 08:10:35;;;;;;;22.48;7.13;;;11.50;90.90;;;;;;5115103;27;20037;-62
2021/01/30 08:13:11;;;;;;;14.50;7.53;;;11.40;91.30;;;;;;5125949;27;20056;-62
2021/01/30 08:15:48;;;;;;;17.92;7.63;;;11.40;91.70;;;;;;5126614;27;20084;-62
2021/01/30 08:18:21;;;;;;;;;;;11.40;92.70;;;;;;5132793;27;20498;-61
2021/01/30 08:20:47;;;;;;;14.50;6.57;;;11.30;93.40;;;;;;5128256;27;19937;-60
2021/01/30 08:23:47;;;;;;;28.20;11.32;;;11.20;94.60;;;;;;5129046;27;20116;-63
2021/01/30 08:26:38;;;;;;;21.02;10.02;;;11.20;95.00;;;;;;5124903;27;20026;-61
2021/01/30 08:29:08;;;;;;;24.30;10.25;;;11.10;95.10;;;;;;5129500;27;20069;-61
2021/01/30 08:31:54;;;;;;;32.92;11.05;;;11.10;96.10;;;;;;5130831;27;20062;-60
2021/01/30 08:34:20;;;;;;;21.40;11.23;;;11.00;95.00;;;;;;5127717;27;20024;-60
2021/01/30 08:36:57;;;;;;;24.92;10.35;;;11.00;95.80;;;;;;5129573;27;20404;-57
2021/01/30 08:39:35;;;;;;;16.65;8.65;;;11.00;96.40;;;;;;5128397;27;20141;-61
2021/01/30 08:42:22;;;;;;;22.20;8.02;;;10.90;96.50;;;;;;5131790;27;20075;-60
2021/01/30 08:44:58;;;;;;;14.98;6.57;;;11.00;95.90;;;;;;5129191;27;20112;-59
2021/01/30 08:47:54;;;;;;;13.43;6.53;;;11.10;95.60;;;;;;5120637;27;20031;-61
2021/01/30 08:50:26;;;;;;;15.95;7.18;;;11.00;95.80;;;;;;5096690;27;20156;-60
2021/01/30 08:52:55;;;;;;;12.82;6.85;;;11.00;95.90;;;;;;5129143;27;20043;-61
2021/01/30 08:55:46;;;;;;;19.13;7.65;;;11.00;96.30;;;;;;5103950;27;20049;-61
2021/01/30 08:58:35;;;;;;;18.30;7.65;;;11.00;96.60;;;;;;5114367;27;20042;-60
2021/01/30 09:01:20;;;;;;;14.18;7.10;;;10.90;97.10;;;;;;5114802;27;20052;-60
2021/01/30 09:03:48;;;;;;;18.55;6.75;;;10.80;97.50;;;;;;5130894;27;20118;-60
2021/01/30 09:06:39;;;;;;;22.23;8.30;;;10.80;98.10;;;;;;5129668;27;20042;-61
2021/01/30 09:09:12;;;;;;;20.65;7.47;;;10.70;98.00;;;;;;5131631;27;20571;-61
2021/01/30 09:11:45;;;;;;;21.55;8.15;;;10.80;98.40;;;;;;5128531;27;20041;-60
2021/01/30 09:14:33;;;;;;;15.45;8.35;;;10.80;97.80;;;;;;5110532;27;20040;-60
2021/01/30 09:17:08;;;;;;;20.23;7.85;;;10.70;98.00;;;;;;5130972;27;20033;-61
2021/01/30 09:20:05;;;;;;;19.25;8.10;;;10.70;97.80;;;;;;5127827;27;20125;-61
2021/01/30 09:22:44;;;;;;;19.10;7.70;;;10.70;97.90;;;;;;5101110;27;20060;-64
2021/01/30 09:25:20;;;;;;;24.05;8.60;;;10.70;98.10;;;;;;5106430;28;20465;-61
2021/01/30 09:27:56;;;;;;;15.25;7.80;;;10.70;99.00;;;;;;5124572;27;20035;-59
2021/01/30 09:30:38;;;;;;;23.75;8.75;;;10.60;99.40;;;;;;5129781;27;20035;-61
2021/01/30 09:33:32;;;;;;;18.90;8.88;;;10.60;99.60;;;;;;5128818;27;20066;-61
2021/01/30 09:36:22;;;;;;;16.42;8.15;;;10.50;99.90;;;;;;5124928;27;20489;-61
2021/01/30 09:38:51;;;;;;;17.65;7.63;;;10.50;99.90;;;;;;5126385;27;20511;-59
2021/01/30 09:41:29;;;;;;;21.35;7.78;;;10.40;99.90;;;;;;5127919;27;20068;-61
2021/01/30 09:44:17;;;;;;;12.32;6.85;;;10.40;99.90;;;;;;5122149;27;20035;-61
2021/01/30 09:46:48;;;;;;;20.95;7.55;;;10.30;99.90;;;;;;5097372;27;20047;-61
2021/01/30 09:49:27;;;;;;;20.85;6.78;;;10.30;99.90;;;;;;5129388;27;20039;-61
2021/01/30 09:51:57;;;;;;;19.05;7.30;;;10.20;99.90;;;;;;5130095;27;20110;-61
2021/01/30 09:54:26;;;;;;;23.88;7.43;;;10.10;99.90;;;;;;5130076;27;20090;-60
2021/01/30 09:57:09;;;;;;;19.25;7.90;;;10.00;99.90;;;;;;5112321;28;20063;-61
2021/01/30 09:59:35;;;;;;;12.73;7.03;;;10.00;99.90;;;;;;5108968;28;20554;-61
2021/01/30 10:02:18;;;;;;;23.95;9.55;;;10.10;99.90;;;;;;5104120;28;20426;-61
2021/01/30 10:04:46;;;;;;;21.50;9.13;;;10.10;99.90;;;;;;5122612;28;20032;-62
2021/01/30 10:07:15;;;;;;;25.90;9.27;;;10.00;99.90;;;;;;5125639;28;20392;-61
2021/01/30 10:09:45;;;;;;;16.50;8.60;;;10.00;99.90;;;;;;5127812;28;20075;-61
2021/01/30 10:12:13;;;;;;;18.45;9.48;;;10.10;99.90;;;;;;5127237;28;20411;-61
2021/01/30 10:14:46;;;;;;;19.85;9.13;;;10.00;99.90;;;;;;5127272;28;20063;-61
2021/01/30 10:17:55;;;;;;;27.33;10.45;;;10.00;99.90;;;;;;5128609;28;20109;-61
2021/01/30 10:20:22;;;;;;;25.02;11.18;;;10.00;99.90;;;;;;5029529;28;20368;-61
2021/01/30 10:22:49;;;;;;;;;;;10.00;99.90;;;;;;5089376;28;20102;-61
2021/01/30 10:25:26;;;;;;;28.15;12.40;;;10.00;99.90;;;;;;5139629;27;19921;-60
2021/01/30 10:28:10;;;;;;;29.67;12.57;;;9.90;99.90;;;;;;5129115;28;20217;-60
2021/01/30 10:30:37;;;;;;;30.33;12.38;;;9.90;99.90;;;;;;5110798;28;20036;-61
2021/01/30 10:33:10;;;;;;;28.55;12.82;;;9.80;99.90;;;;;;5128686;28;20042;-61
2021/01/30 10:35:48;;;;;;;26.30;11.93;;;9.80;99.90;;;;;;5127548;28;20037;-61
2021/01/30 10:38:20;;;;;;;28.10;12.10;;;9.70;99.90;;;;;;5126308;27;20401;-60
2021/01/30 10:40:54;;;;;;;31.40;12.95;;;9.80;99.90;;;;;;5128908;28;20079;-61
2021/01/30 10:43:26;;;;;;;29.25;14.45;;;9.80;99.90;;;;;;5123329;28;20036;-61
2021/01/30 10:45:56;;;;;;;33.78;15.32;;;9.90;99.90;;;;;;5129970;28;20036;-60
2021/01/30 10:48:26;;;;;;;36.80;16.73;;;9.90;99.90;;;;;;5128973;28;20098;-60
2021/01/30 10:51:00;;;;;;;45.28;18.88;;;9.90;99.90;;;;;;5131882;28;20036;-61
2021/01/30 10:53:35;;;;;;;38.58;17.92;;;9.80;99.90;;;;;;5112194;28;20397;-61
2021/01/30 10:56:14;;;;;;;45.80;20.23;;;9.80;99.90;;;;;;5130856;27;20483;-60
2021/01/30 10:58:42;;;;;;;57.20;25.90;;;9.80;99.90;;;;;;5133100;27;20099;-61
2021/01/30 11:01:31;;;;;;;51.67;25.20;;;9.70;99.90;;;;;;5132578;27;20054;-61
2021/01/30 11:03:58;;;;;;;50.55;23.73;;;9.70;99.90;;;;;;5132894;27;20035;-60
2021/01/30 11:06:47;;;;;;;60.67;24.65;;;9.70;99.90;;;;;;5129601;27;20138;-60
2021/01/30 11:09:23;;;;;;;55.33;23.52;;;9.60;99.90;;;;;;5130920;27;20045;-60
2021/01/30 11:11:53;;;;;;;49.20;22.67;;;9.50;99.90;;;;;;5132337;27;20036;-61
2021/01/30 11:14:20;;;;;;;45.60;21.60;;;9.50;99.90;;;;;;5132656;27;20069;-60
2021/01/30 11:16:46;;;;;;;65.13;24.52;;;9.50;99.90;;;;;;5123562;27;20031;-62
2021/01/30 11:19:26;;;;;;;67.70;25.77;;;9.50;99.90;;;;;;5131296;27;20029;-60
2021/01/30 11:22:10;;;;;;;66.47;29.58;;;9.40;99.90;;;;;;5134327;27;20061;-61
2021/01/30 11:24:49;;;;;;;63.83;30.60;;;9.30;99.90;;;;;;5112246;27;20129;-61
2021/01/30 11:27:33;;;;;;;76.05;32.15;;;9.30;99.90;;;;;;5115627;27;20117;-61
2021/01/30 11:30:15;;;;;;;74.18;31.13;;;9.40;99.90;;;;;;5125541;27;20033;-61
2021/01/30 11:33:04;;;;;;;74.03;31.10;;;9.30;99.90;;;;;;5115506;27;20348;-60
2021/01/30 11:35:39;;;;;;;66.82;32.25;;;9.30;99.90;;;;;;5133903;27;20032;-60
2021/01/30 11:38:11;;;;;;;73.97;34.20;;;9.40;99.90;;;;;;5128722;27;20039;-60
2021/01/30 11:40:39;;;;;;;77.25;35.75;;;9.40;99.90;;;;;;5132635;27;20074;-60
2021/01/30 11:43:06;;;;;;;77.80;39.40;;;9.40;99.90;;;;;;5126951;27;20041;-61
2021/01/30 11:45:33;;;;;;;73.55;35.10;;;9.30;99.90;;;;;;5132894;27;20030;-61
2021/01/30 11:48:00;;;;;;;80.15;38.08;;;9.30;99.90;;;;;;5105820;28;20139;-61
2021/01/30 11:50:26;;;;;;;;;;;9.30;99.90;;;;;;5120759;27;20612;-60
2021/01/30 11:52:52;;;;;;;74.00;37.83;;;9.30;99.90;;;;;;5129872;27;20385;-62
2021/01/30 11:55:19;;;;;;;;;;;9.30;99.90;;;;;;5132656;27;20083;-61
2021/01/30 11:57:46;;;;;;;72.15;38.15;;;9.30;99.90;;;;;;5129320;27;20014;-62
2021/01/30 12:00:12;;;;;;;;;;;9.20;99.90;;;;;;5133316;27;20036;-61
2021/01/30 12:02:40;;;;;;;72.88;37.00;;;9.20;99.90;;;;;;5131399;27;20043;-62
2021/01/30 12:05:11;;;;;;;72.50;37.50;;;9.10;99.90;;;;;;5132529;27;20034;-60
2021/01/30 12:07:39;;;;;;;84.00;39.80;;;9.10;99.90;;;;;;5130822;27;20051;-60
2021/01/30 12:10:07;;;;;;;79.65;39.30;;;9.10;99.90;;;;;;5113600;27;20483;-60
2021/01/30 12:12:34;;;;;;;77.53;40.97;;;9.20;99.90;;;;;;5129395;27;20061;-61
2021/01/30 12:15:01;;;;;;;93.28;40.42;;;9.10;99.90;;;;;;5129416;27;20509;-59
2021/01/30 12:17:37;;;;;;;75.80;40.13;;;9.20;99.90;;;;;;5127427;27;20033;-60
2021/01/30 12:20:10;;;;;;;86.22;41.75;;;9.10;99.90;;;;;;5130367;27;20039;-62
2021/01/30 12:22:37;;;;;;;87.57;42.28;;;9.20;99.90;;;;;;5128972;27;20532;-61
2021/01/30 12:25:06;;;;;;;84.82;41.50;;;9.20;99.90;;;;;;5130188;27;20154;-61
2021/01/30 12:27:33;;;;;;;90.55;45.13;;;9.20;99.90;;;;;;5129542;27;20030;-61
2021/01/30 12:30:00;;;;;;;100.32;48.53;;;9.10;99.90;;;;;;5131466;27;20061;-61
2021/01/30 12:32:27;;;;;;;90.85;46.47;;;9.10;99.90;;;;;;5115848;27;20046;-61
2021/01/30 12:34:53;;;;;;;;;;;9.10;99.90;;;;;;5131128;27;20076;-61
2021/01/30 12:37:19;;;;;;;93.72;44.25;;;9.00;99.90;;;;;;5118890;27;19941;-61
2021/01/30 12:39:46;;;;;;;;;;;8.90;99.90;;;;;;5114656;27;20071;-61
2021/01/30 12:42:13;;;;;;;94.50;43.42;;;8.90;99.90;;;;;;5128632;27;19987;-61
2021/01/30 12:44:39;;;;;;;;;;;8.90;99.90;;;;;;5123868;27;20042;-62
2021/01/30 12:47:06;;;;;;;93.13;44.20;;;8.90;99.90;;;;;;5108667;28;19955;-62
2021/01/30 12:49:32;;;;;;;;;;;8.80;99.90;;;;;;5112042;27;20449;-61
2021/01/30 12:51:58;;;;;;;86.43;42.80;;;8.80;99.90;;;;;;5115207;27;19922;-62
2021/01/30 12:54:25;;;;;;;;;;;8.80;99.90;;;;;;5127342;27;20032;-61
2021/01/30 12:56:52;;;;;;;92.38;45.75;;;8.80;99.90;;;;;;5124368;27;20383;-60
2021/01/30 12:59:18;;;;;;;88.45;46.70;;;8.70;99.90;;;;;;5131803;27;20031;-61
2021/01/30 13:01:44;;;;;;;;;;;8.80;99.90;;;;;;5122627;27;20419;-60
2021/01/30 13:04:11;;;;;;;85.75;43.70;;;8.70;99.90;;;;;;5131547;27;19926;-61
2021/01/30 13:06:37;;;;;;;;;;;8.80;99.90;;;;;;5108221;28;20032;-61
2021/01/30 13:09:04;;;;;;;87.18;44.75;;;8.80;99.90;;;;;;5107266;28;20015;-61
2021/01/30 13:11:31;;;;;;;94.10;46.65;;;8.70;99.90;;;;;;5129479;27;20032;-61
2021/01/30 13:13:57;;;;;;;88.35;45.72;;;8.70;99.90;;;;;;5129158;27;20373;-60
2021/01/30 13:16:24;;;;;;;;;;;8.70;99.90;;;;;;5130719;27;20074;-62
2021/01/30 13:18:51;;;;;;;80.22;42.05;;;8.70;99.90;;;;;;5115084;27;19938;-62
2021/01/30 13:21:17;;;;;;;86.88;42.35;;;8.70;99.90;;;;;;5113111;27;20142;-62
2021/01/30 13:23:43;;;;;;;;;;;8.70;99.90;;;;;;5132032;27;20115;-62
2021/01/30 13:26:10;;;;;;;83.00;43.72;;;8.70;99.90;;;;;;5130698;27;19920;-61